Time;durP1;ratioP1;P1;durP2;ratioP2;P2;SDS_P1;SDS_P2;PMS_P1;PMS_P2;Temp;Humidity;BMP_temperature;BMP_pressure;BME280_temperature;BME280_humidity;BME280_pressure;Samples;Min_cycle;Max_cycle;Signal;HPM_P1;HPM_P2
2023/09/07 00:01:58;;;;;;;7.72;6.57;;;;;;;17.02;73.12;96916.75;5117109;27;20075;-64
2023/09/07 00:04:25;;;;;;;8.40;6.85;;;;;;;16.92;73.98;96919.06;5117028;28;20040;-64
2023/09/07 00:06:52;;;;;;;7.97;6.53;;;;;;;16.95;74.02;96914.53;5117073;28;20039;-65
2023/09/07 00:09:21;;;;;;;10.38;6.90;;;;;;;16.89;73.79;96903.38;5117111;28;20044;-64
2023/09/07 00:11:50;;;;;;;9.48;6.55;;;;;;;16.78;73.87;96914.59;5117257;28;20077;-68
2023/09/07 00:14:17;;;;;;;8.05;6.38;;;;;;;16.62;74.48;96906.66;5116974;28;20504;-67
2023/09/07 00:16:44;;;;;;;11.55;6.32;;;;;;;16.57;74.98;96910.50;5116790;28;20055;-65
2023/09/07 00:19:11;;;;;;;9.85;7.03;;;;;;;16.47;75.58;96912.81;5116784;28;20047;-70
2023/09/07 00:21:38;;;;;;;7.97;7.03;;;;;;;16.38;75.72;96912.38;5116843;28;20089;-63
2023/09/07 00:24:05;;;;;;;7.90;6.82;;;;;;;16.34;75.66;96910.03;5116770;28;20043;-64
2023/09/07 00:26:33;;;;;;;11.48;7.80;;;;;;;16.23;76.32;96915.91;5116580;28;20044;-62
2023/09/07 00:29:01;;;;;;;8.77;6.90;;;;;;;16.09;76.74;96908.72;5116541;28;20044;-66
2023/09/07 00:31:28;;;;;;;11.02;7.10;;;;;;;16.07;76.93;96914.09;5116620;28;20087;-63
2023/09/07 00:33:55;;;;;;;11.75;7.47;;;;;;;16.07;77.05;96907.97;5116844;28;20051;-63
2023/09/07 00:36:22;;;;;;;12.95;7.45;;;;;;;16.08;77.17;96918.44;5116486;28;20052;-65
2023/09/07 00:38:49;;;;;;;8.95;6.60;;;;;;;16.11;77.21;96918.28;5116383;28;20047;-64
2023/09/07 00:41:16;;;;;;;7.50;6.05;;;;;;;16.16;76.47;96916.22;5116564;27;20105;-65
2023/09/07 00:43:43;;;;;;;6.85;6.25;;;;;;;16.19;76.53;96907.28;5116314;28;20077;-64
2023/09/07 00:46:12;;;;;;;10.95;6.90;;;;;;;16.22;76.26;96911.56;5116224;28;20051;-62
2023/09/07 00:48:40;;;;;;;7.22;6.43;;;;;;;16.19;75.72;96909.91;5116257;28;20054;-62
2023/09/07 00:51:08;;;;;;;12.18;7.75;;;;;;;16.13;75.81;96904.97;5116262;28;20048;-66
2023/09/07 00:53:35;;;;;;;8.57;6.45;;;;;;;16.08;75.82;96899.97;5116393;28;20040;-64
2023/09/07 00:56:03;;;;;;;11.45;7.60;;;;;;;16.04;76.03;96907.19;5115921;28;20134;-64
2023/09/07 00:58:30;;;;;;;7.20;6.47;;;;;;;16.03;76.10;96910.78;5116004;28;20058;-63
2023/09/07 01:00:58;;;;;;;8.48;7.05;;;;;;;16.01;75.81;96912.63;5115413;27;20055;-68
2023/09/07 01:03:26;;;;;;;8.57;6.88;;;;;;;16.04;75.99;96911.59;5115955;28;20051;-67
2023/09/07 01:05:59;;;;;;;9.73;7.00;;;;;;;16.03;75.99;96920.47;5115884;28;20453;-66
2023/09/07 01:08:30;;;;;;;8.23;6.35;;;;;;;16.01;75.94;96923.19;5115798;28;20581;-63
2023/09/07 01:10:56;;;;;;;11.32;7.13;;;;;;;16.01;75.93;96917.06;5115800;28;20071;-67
2023/09/07 01:13:24;;;;;;;9.18;6.50;;;;;;;16.00;75.71;96905.66;5115879;28;20079;-67
2023/09/07 01:15:51;;;;;;;7.85;7.00;;;;;;;15.99;75.60;96911.88;5115709;28;20058;-68
2023/09/07 01:18:19;;;;;;;8.57;6.47;;;;;;;15.95;75.60;96910.28;5115796;28;20105;-65
2023/09/07 01:20:49;;;;;;;9.43;6.75;;;;;;;15.92;75.39;96910.44;5115599;28;20050;-66
2023/09/07 01:23:17;;;;;;;10.48;6.40;;;;;;;15.80;75.73;96904.06;5115657;28;20489;-66
2023/09/07 01:25:45;;;;;;;13.05;7.20;;;;;;;15.78;75.79;96901.50;5115523;28;20100;-64
2023/09/07 01:28:12;;;;;;;11.10;6.45;;;;;;;15.78;75.62;96904.13;5115462;28;20536;-71
2023/09/07 01:30:41;;;;;;;8.93;7.45;;;;;;;15.74;75.75;96902.59;5115460;28;20055;-64
2023/09/07 01:33:09;;;;;;;7.75;6.05;;;;;;;15.76;75.80;96910.44;5115478;28;20051;-67
2023/09/07 01:35:37;;;;;;;10.15;5.95;;;;;;;15.75;75.50;96909.56;5115204;28;20047;-67
2023/09/07 01:38:04;;;;;;;9.90;6.68;;;;;;;15.68;75.42;96910.84;5115137;28;20083;-69
2023/09/07 01:40:33;;;;;;;8.30;6.80;;;;;;;15.64;75.55;96906.66;5115335;28;20093;-68
2023/09/07 01:43:00;;;;;;;8.45;6.85;;;;;;;15.64;75.40;96910.16;5115227;28;20071;-67
2023/09/07 01:45:27;;;;;;;9.27;7.30;;;;;;;15.62;75.91;96906.75;5115444;28;20127;-70
2023/09/07 01:47:54;;;;;;;13.45;6.82;;;;;;;15.60;75.52;96900.72;5115073;28;20051;-68
2023/09/07 01:50:21;;;;;;;8.30;7.10;;;;;;;15.47;76.27;96900.47;5115208;28;20052;-65
2023/09/07 01:52:49;;;;;;;9.57;7.28;;;;;;;15.39;76.79;96900.88;5115201;28;20071;-64
2023/09/07 01:55:16;;;;;;;8.55;6.68;;;;;;;15.36;77.25;96903.69;5115007;28;20097;-66
2023/09/07 01:57:45;;;;;;;7.95;6.93;;;;;;;15.26;77.63;96905.94;5114961;28;20051;-64
2023/09/07 02:00:13;;;;;;;9.75;6.68;;;;;;;15.25;77.93;96906.88;5114823;28;20071;-67
2023/09/07 02:02:40;;;;;;;11.48;7.05;;;;;;;15.25;77.81;96908.66;5114716;28;20048;-64
2023/09/07 02:05:09;;;;;;;9.30;7.35;;;;;;;15.29;77.33;96904.91;5115055;27;20051;-65
2023/09/07 02:07:36;;;;;;;7.50;6.70;;;;;;;15.27;77.33;96904.16;5114494;28;20047;-67
2023/09/07 02:10:04;;;;;;;8.50;6.95;;;;;;;15.29;77.27;96910.19;5114770;28;20082;-66
2023/09/07 02:12:31;;;;;;;8.00;7.25;;;;;;;15.24;77.08;96906.94;5114456;28;20044;-65
2023/09/07 02:15:05;;;;;;;8.95;6.72;;;;;;;15.24;77.32;96901.69;5114613;28;20051;-70
2023/09/07 02:17:32;;;;;;;11.55;7.88;;;;;;;15.21;77.26;96901.84;5114541;28;20052;-62
2023/09/07 02:19:59;;;;;;;8.68;7.78;;;;;;;15.18;77.10;96913.41;5114548;28;20054;-68
2023/09/07 02:22:26;;;;;;;9.10;6.88;;;;;;;15.18;77.50;96915.16;5114583;28;20120;-67
2023/09/07 02:24:53;;;;;;;7.78;6.93;;;;;;;15.16;77.38;96913.47;5114314;27;20073;-69
2023/09/07 02:27:20;;;;;;;9.27;7.32;;;;;;;15.19;77.49;96920.34;5114380;28;20082;-66
2023/09/07 02:29:47;;;;;;;8.27;7.03;;;;;;;15.22;77.10;96916.72;5114266;28;20040;-68
2023/09/07 02:32:16;;;;;;;9.63;7.18;;;;;;;15.23;77.16;96919.25;5114350;28;20112;-67
2023/09/07 02:34:43;;;;;;;10.77;6.82;;;;;;;15.19;76.70;96915.09;5114244;28;20043;-65
2023/09/07 02:37:10;;;;;;;7.90;7.10;;;;;;;15.16;76.56;96915.25;5114140;28;20047;-68
2023/09/07 02:39:37;;;;;;;8.45;7.10;;;;;;;15.08;76.95;96912.16;5114055;28;20485;-66
2023/09/07 02:42:04;;;;;;;7.80;7.10;;;;;;;15.07;77.07;96918.34;5113924;28;20400;-64
2023/09/07 02:44:31;;;;;;;8.27;7.30;;;;;;;15.09;77.03;96916.50;5114166;28;20100;-68
2023/09/07 02:46:58;;;;;;;9.50;7.70;;;;;;;15.03;77.09;96915.84;5114290;28;20054;-69
2023/09/07 02:49:27;;;;;;;9.30;6.93;;;;;;;14.99;77.58;96909.03;5113874;28;20477;-64
2023/09/07 02:51:54;;;;;;;8.13;6.60;;;;;;;14.97;77.31;96916.19;5113928;28;20078;-65
2023/09/07 02:54:21;;;;;;;13.30;7.15;;;;;;;14.98;77.23;96917.03;5113904;28;20047;-69
2023/09/07 02:56:48;;;;;;;11.80;6.85;;;;;;;14.99;76.43;96914.31;5113704;28;20074;-68
2023/09/07 02:59:15;;;;;;;11.35;6.88;;;;;;;14.92;76.36;96912.91;5113814;28;20039;-68
2023/09/07 03:01:42;;;;;;;9.93;7.25;;;;;;;14.85;76.76;96914.16;5113695;28;20524;-69
2023/09/07 03:04:09;;;;;;;10.40;7.28;;;;;;;14.83;77.06;96913.34;5113766;28;20043;-62
2023/09/07 03:06:38;;;;;;;9.25;7.70;;;;;;;14.79;76.88;96915.31;5113562;28;20055;-63
2023/09/07 03:09:08;;;;;;;13.20;7.63;;;;;;;14.74;76.91;96918.13;5113855;28;20059;-68
2023/09/07 03:11:44;;;;;;;;;;;;;;;14.64;77.02;96916.88;5114081;28;20454;-66
2023/09/07 03:14:11;;;;;;;7.82;6.88;;;;;;;14.57;78.03;96924.19;5077981;28;19974;-67
2023/09/07 03:16:39;;;;;;;8.55;7.53;;;;;;;14.55;77.63;96918.19;5113613;28;20055;-65
2023/09/07 03:19:06;;;;;;;8.85;7.93;;;;;;;14.48;78.09;96914.97;5113705;28;20040;-65
2023/09/07 03:21:33;;;;;;;8.60;7.50;;;;;;;14.47;77.64;96915.91;5113576;28;20135;-67
2023/09/07 03:24:02;;;;;;;11.13;7.75;;;;;;;14.37;78.17;96912.88;5112990;28;20063;-71
2023/09/07 03:26:29;;;;;;;7.82;7.05;;;;;;;14.36;77.89;96907.69;5113566;28;20048;-65
2023/09/07 03:28:57;;;;;;;10.10;8.00;;;;;;;14.38;78.36;96911.06;5113602;28;20051;-68
2023/09/07 03:31:24;;;;;;;13.73;7.50;;;;;;;14.38;78.52;96913.72;5113534;28;20047;-67
2023/09/07 03:33:51;;;;;;;8.40;7.30;;;;;;;14.35;78.54;96911.22;5113463;28;20044;-64
2023/09/07 03:36:18;;;;;;;9.20;7.97;;;;;;;14.30;78.52;96919.31;5113460;28;20051;-64
2023/09/07 03:38:45;;;;;;;9.95;7.13;;;;;;;14.32;78.71;96914.00;5113372;28;20047;-65
2023/09/07 03:41:14;;;;;;;10.77;7.85;;;;;;;14.28;78.51;96916.78;5113367;28;20051;-67
2023/09/07 03:43:41;;;;;;;8.55;7.20;;;;;;;14.28;78.39;96911.53;5113407;28;20062;-65
2023/09/07 03:46:09;;;;;;;8.63;7.10;;;;;;;14.27;78.44;96922.13;5113446;28;20044;-65
2023/09/07 03:48:36;;;;;;;9.18;7.60;;;;;;;14.26;78.41;96918.63;5113430;28;20409;-65
2023/09/07 03:51:06;;;;;;;8.20;7.15;;;;;;;14.28;78.05;96916.78;5113337;28;20049;-66
2023/09/07 03:53:34;;;;;;;8.15;7.35;;;;;;;14.31;78.25;96920.19;5113317;28;20370;-65
2023/09/07 03:56:05;;;;;;;10.52;7.70;;;;;;;14.28;78.37;96919.44;5113185;28;20409;-66
2023/09/07 03:58:34;;;;;;;9.98;7.20;;;;;;;14.33;78.15;96924.44;5113171;28;20054;-64
2023/09/07 04:01:01;;;;;;;14.50;7.85;;;;;;;14.28;78.54;96926.47;5113187;28;20048;-67
2023/09/07 04:03:28;;;;;;;8.57;7.57;;;;;;;14.35;78.89;96925.25;5113184;28;20052;-66
2023/09/07 04:05:55;;;;;;;7.78;6.97;;;;;;;14.43;78.52;96924.03;5113107;28;20052;-66
2023/09/07 04:08:23;;;;;;;8.02;7.22;;;;;;;14.48;77.85;96925.50;5112975;28;20039;-63
2023/09/07 04:10:50;;;;;;;10.50;7.63;;;;;;;14.51;77.60;96927.16;5113039;28;20047;-67
2023/09/07 04:13:17;;;;;;;9.02;7.60;;;;;;;14.48;77.39;96922.88;5113075;28;20050;-71
2023/09/07 04:15:47;;;;;;;7.95;7.15;;;;;;;14.52;77.53;96923.59;5113103;28;20484;-67
2023/09/07 04:18:16;;;;;;;8.85;7.75;;;;;;;14.52;77.23;96919.19;5112953;28;20136;-66
2023/09/07 04:20:43;;;;;;;10.85;7.20;;;;;;;14.56;77.45;96930.41;5112959;28;20044;-68
2023/09/07 04:23:10;;;;;;;8.55;6.90;;;;;;;14.63;77.36;96933.63;5113116;28;20043;-71
2023/09/07 04:25:39;;;;;;;9.15;6.85;;;;;;;14.70;77.16;96924.47;5112946;28;20079;-66
2023/09/07 04:28:07;;;;;;;9.05;7.47;;;;;;;14.75;76.98;96927.72;5113024;28;20572;-72
2023/09/07 04:30:34;;;;;;;7.22;6.50;;;;;;;14.82;76.77;96930.09;5113332;28;20116;-67
2023/09/07 04:33:03;;;;;;;8.15;7.18;;;;;;;14.93;76.97;96930.41;5112835;28;20050;-68
2023/09/07 04:35:31;;;;;;;9.48;6.70;;;;;;;15.24;76.79;96933.31;5114401;28;20396;-70
2023/09/07 04:37:59;;;;;;;7.28;6.57;;;;;;;15.69;76.00;96938.06;5116432;28;20059;-71
2023/09/07 04:40:26;;;;;;;8.38;5.90;;;;;;;16.20;74.30;96945.97;5116466;28;20044;-65
2023/09/07 04:42:53;;;;;;;10.93;6.53;;;;;;;16.77;71.80;96941.09;5116616;28;20138;-67
2023/09/07 04:45:20;;;;;;;9.27;6.60;;;;;;;17.38;69.54;96950.84;5116265;28;20587;-68
2023/09/07 04:47:48;;;;;;;8.93;5.88;;;;;;;18.00;66.88;96951.59;5116560;28;20121;-65
2023/09/07 04:50:16;;;;;;;6.60;5.25;;;;;;;18.59;63.84;96960.31;5116660;28;20077;-66
2023/09/07 04:52:44;;;;;;;5.95;4.57;;;;;;;19.12;62.19;96967.56;5116293;28;20394;-68
2023/09/07 04:55:11;;;;;;;5.18;4.68;;;;;;;19.66;60.56;96965.75;5116167;28;20054;-65
2023/09/07 04:57:38;;;;;;;6.15;4.78;;;;;;;20.23;58.81;96966.31;5116064;28;20077;-68
2023/09/07 05:00:07;;;;;;;5.95;4.90;;;;;;;20.74;57.24;96964.44;5116071;28;20044;-68
2023/09/07 05:02:38;;;;;;;5.57;4.50;;;;;;;21.31;55.87;96971.91;5116010;28;20047;-68
2023/09/07 05:05:05;;;;;;;6.28;4.55;;;;;;;21.78;53.56;96963.94;5116258;28;20052;-65
2023/09/07 05:07:35;;;;;;;7.72;4.13;;;;;;;22.32;53.22;96977.53;5115802;28;20126;-68
2023/09/07 05:10:02;;;;;;;9.02;4.72;;;;;;;22.72;51.53;96970.00;5116118;28;20621;-64
2023/09/07 05:12:29;;;;;;;5.03;4.20;;;;;;;23.15;51.94;96964.78;5115878;28;20550;-64
2023/09/07 05:14:57;;;;;;;4.80;4.32;;;;;;;23.73;49.82;96967.06;5115783;28;20044;-67
2023/09/07 05:17:24;;;;;;;7.03;4.45;;;;;;;24.20;48.93;96968.44;5115851;28;20124;-65
2023/09/07 05:19:51;;;;;;;4.82;4.38;;;;;;;24.72;48.40;96975.50;5115962;28;20043;-65
2023/09/07 05:22:19;;;;;;;5.50;4.63;;;;;;;25.27;47.14;96964.47;5115768;28;20047;-67
2023/09/07 05:24:48;;;;;;;4.75;4.35;;;;;;;25.77;46.33;96982.25;5115683;28;20055;-67
2023/09/07 05:27:15;;;;;;;4.43;4.00;;;;;;;26.35;45.45;96975.03;5115688;28;20040;-67
2023/09/07 05:29:42;;;;;;;4.53;4.13;;;;;;;26.87;44.17;96988.88;5115724;28;20100;-65
2023/09/07 05:32:11;;;;;;;6.82;4.05;;;;;;;27.36;43.91;96985.03;5115501;28;20054;-68
2023/09/07 05:34:38;;;;;;;4.75;4.25;;;;;;;27.75;42.78;96989.22;5115384;28;20075;-64
2023/09/07 05:37:05;;;;;;;5.45;4.82;;;;;;;28.13;41.97;96981.75;5115432;28;20048;-66
2023/09/07 05:39:32;;;;;;;5.32;4.55;;;;;;;28.40;39.98;96991.66;5115751;28;20086;-66
2023/09/07 05:42:01;;;;;;;6.15;3.90;;;;;;;28.48;37.65;96979.06;5115266;28;20062;-67
2023/09/07 05:44:28;;;;;;;6.82;4.22;;;;;;;28.73;39.42;96986.41;5115447;28;20048;-64
2023/09/07 05:46:55;;;;;;;11.45;4.10;;;;;;;29.03;38.23;96986.00;5114822;28;20078;-67
2023/09/07 05:49:22;;;;;;;5.85;4.43;;;;;;;29.48;40.89;96986.56;5115222;28;20047;-66
2023/09/07 05:51:49;;;;;;;6.10;3.95;;;;;;;29.41;33.65;96985.56;5115109;28;20044;-66
2023/09/07 05:54:17;;;;;;;6.53;4.07;;;;;;;29.24;33.74;96988.25;5115139;28;20043;-67
2023/09/07 05:56:44;;;;;;;6.90;3.78;;;;;;;29.21;36.10;96984.03;5114885;28;20058;-66
2023/09/07 05:59:13;;;;;;;5.00;3.78;;;;;;;29.24;35.11;96988.25;5114810;28;20057;-67
2023/09/07 06:01:41;;;;;;;8.07;3.78;;;;;;;29.00;32.53;96989.88;5114856;28;20043;-65
2023/09/07 06:04:08;;;;;;;4.93;3.88;;;;;;;28.91;33.21;96983.59;5114906;27;20050;-63
2023/09/07 06:06:35;;;;;;;5.32;3.95;;;;;;;28.70;33.33;96979.50;5114779;28;20404;-67
2023/09/07 06:09:03;;;;;;;8.07;4.00;;;;;;;28.74;33.51;96980.88;5114549;28;20048;-66
2023/09/07 06:11:31;;;;;;;5.82;3.75;;;;;;;28.35;33.78;96984.91;5114693;28;20524;-69
2023/09/07 06:13:59;;;;;;;6.43;3.58;;;;;;;28.18;33.39;96981.28;5114700;28;20437;-65
2023/09/07 06:16:27;;;;;;;5.78;3.45;;;;;;;28.00;33.41;96984.84;5114538;28;20465;-63
2023/09/07 06:18:54;;;;;;;7.30;3.45;;;;;;;27.59;33.04;96984.53;5114468;28;20059;-66
2023/09/07 06:21:22;;;;;;;4.97;3.30;;;;;;;27.50;34.29;96972.88;5114541;28;20047;-65
2023/09/07 06:23:50;;;;;;;6.50;3.47;;;;;;;27.40;34.60;96972.13;5114392;28;20516;-63
2023/09/07 06:26:17;;;;;;;4.93;3.72;;;;;;;27.24;35.16;96968.31;5114488;28;20052;-64
2023/09/07 06:28:45;;;;;;;8.02;3.45;;;;;;;27.35;35.02;96969.91;5114439;28;20047;-68
2023/09/07 06:31:12;;;;;;;5.95;3.63;;;;;;;27.44;34.04;96963.59;5114609;28;20051;-64
2023/09/07 06:33:40;;;;;;;7.38;3.00;;;;;;;27.21;33.61;96971.31;5114215;28;20062;-65
2023/09/07 06:36:07;;;;;;;4.63;3.28;;;;;;;27.11;33.97;96966.00;5114254;28;20044;-63
2023/09/07 06:38:34;;;;;;;4.10;2.80;;;;;;;27.14;33.01;96971.06;5114226;28;20382;-66
2023/09/07 06:41:01;;;;;;;6.50;3.22;;;;;;;26.88;33.57;96969.94;5114437;28;20047;-66
2023/09/07 06:43:30;;;;;;;6.47;2.92;;;;;;;26.78;32.50;96961.09;5114230;28;20460;-64
2023/09/07 06:46:04;;;;;;;7.38;3.22;;;;;;;26.60;34.06;96964.59;5114182;28;20051;-63
2023/09/07 06:48:32;;;;;;;3.83;2.85;;;;;;;26.84;32.71;96965.88;5114076;28;20050;-64
2023/09/07 06:51:04;;;;;;;10.35;3.22;;;;;;;26.95;32.76;96967.50;5114007;28;20052;-65
2023/09/07 06:53:31;;;;;;;5.53;3.20;;;;;;;26.88;32.02;96961.06;5114027;28;20044;-66
2023/09/07 06:55:59;;;;;;;6.90;3.05;;;;;;;27.09;35.45;96962.63;5114088;28;20105;-64
2023/09/07 06:58:26;;;;;;;5.40;3.10;;;;;;;27.36;32.15;96961.69;5113139;28;20409;-63
2023/09/07 07:00:54;;;;;;;4.35;2.80;;;;;;;27.48;32.57;96967.66;5113928;28;20101;-65
2023/09/07 07:03:21;;;;;;;5.38;2.80;;;;;;;27.47;32.17;96960.63;5114034;28;20090;-63
2023/09/07 07:05:48;;;;;;;5.88;3.30;;;;;;;27.65;31.09;96961.59;5113755;28;20055;-64
2023/09/07 07:08:16;;;;;;;4.30;2.85;;;;;;;27.82;31.25;96971.50;5113421;28;20093;-66
2023/09/07 07:10:43;;;;;;;9.18;2.97;;;;;;;27.86;31.21;96970.16;5113747;28;20050;-64
2023/09/07 07:13:11;;;;;;;8.23;3.00;;;;;;;28.07;31.33;96965.41;5113726;28;20052;-64
2023/09/07 07:15:38;;;;;;;9.45;3.20;;;;;;;27.99;30.30;96969.72;5113673;28;20546;-67
2023/09/07 07:18:08;;;;;;;7.97;3.22;;;;;;;28.11;30.97;96962.25;5113918;28;20116;-65
2023/09/07 07:20:35;;;;;;;7.75;3.95;;;;;;;28.35;31.95;96965.25;5113616;28;20083;-68
2023/09/07 07:23:02;;;;;;;4.93;3.33;;;;;;;28.43;30.72;96962.59;5113746;28;20043;-64
2023/09/07 07:25:33;;;;;;;6.15;3.10;;;;;;;28.67;30.00;96974.47;5113525;28;20045;-65
2023/09/07 07:28:01;;;;;;;8.07;2.83;;;;;;;28.71;29.79;96967.72;5113514;28;20087;-64
2023/09/07 07:30:29;;;;;;;4.53;3.20;;;;;;;28.76;29.86;96965.41;5113588;28;20044;-63
2023/09/07 07:32:56;;;;;;;5.45;2.70;;;;;;;28.74;30.07;96962.03;5113537;28;20048;-65
2023/09/07 07:35:23;;;;;;;6.80;3.03;;;;;;;28.88;30.81;96975.84;5113337;28;20087;-63
2023/09/07 07:37:51;;;;;;;3.22;2.90;;;;;;;28.71;29.44;96978.50;5113667;28;20108;-64
2023/09/07 07:40:18;;;;;;;7.93;3.00;;;;;;;28.63;29.23;96971.22;5113439;28;20485;-64
2023/09/07 07:42:47;;;;;;;6.03;3.20;;;;;;;28.18;29.64;96966.97;5113319;28;20055;-64
2023/09/07 07:45:15;;;;;;;10.20;2.88;;;;;;;28.01;30.35;96966.88;5113477;28;20497;-66
2023/09/07 07:47:42;;;;;;;5.93;3.17;;;;;;;28.11;30.13;96966.78;5113191;28;20096;-62
2023/09/07 07:50:10;;;;;;;7.82;3.05;;;;;;;28.25;30.07;96973.41;5113385;28;20054;-64
2023/09/07 07:52:37;;;;;;;6.47;2.70;;;;;;;28.33;29.12;96962.72;5113311;28;20047;-64
2023/09/07 07:55:05;;;;;;;4.60;2.65;;;;;;;28.31;28.86;96963.88;5113250;28;20051;-63
2023/09/07 07:57:33;;;;;;;5.68;3.30;;;;;;;28.27;28.99;96974.09;5113268;28;20480;-67
2023/09/07 08:00:03;;;;;;;5.50;3.45;;;;;;;28.51;30.61;96962.63;5113253;28;20087;-64
2023/09/07 08:02:31;;;;;;;5.00;2.83;;;;;;;28.91;30.38;96954.00;5113252;28;20043;-65
2023/09/07 08:04:58;;;;;;;5.30;3.10;;;;;;;29.12;28.35;96967.03;5113233;28;20051;-66
2023/09/07 08:07:26;;;;;;;5.88;3.08;;;;;;;29.21;29.15;96954.41;5112954;28;20108;-64
2023/09/07 08:09:53;;;;;;;5.30;3.38;;;;;;;29.32;29.50;96955.94;5115544;28;20131;-66
2023/09/07 08:12:20;;;;;;;6.97;3.40;;;;;;;29.37;29.21;96953.56;5117149;27;20077;-67
2023/09/07 08:14:47;;;;;;;7.40;2.85;;;;;;;29.34;27.88;96959.28;5117066;28;20048;-64
2023/09/07 08:17:16;;;;;;;5.72;2.85;;;;;;;29.01;28.45;96949.34;5117226;28;20043;-65
2023/09/07 08:19:43;;;;;;;6.60;3.25;;;;;;;28.60;28.82;96938.44;5117110;28;20128;-64
2023/09/07 08:22:10;;;;;;;11.32;3.08;;;;;;;28.65;28.99;96951.41;5117000;28;20122;-65
2023/09/07 08:24:38;;;;;;;7.65;3.15;;;;;;;28.42;30.38;96943.94;5116793;28;20043;-65
2023/09/07 08:27:05;;;;;;;4.38;2.70;;;;;;;28.75;30.14;96950.25;5116826;28;20125;-67
2023/09/07 08:29:32;;;;;;;8.68;2.80;;;;;;;29.05;29.51;96949.00;5116564;27;20047;-68
2023/09/07 08:32:01;;;;;;;4.18;2.70;;;;;;;28.92;28.55;96958.38;5116667;27;20039;-65
2023/09/07 08:34:31;;;;;;;5.60;2.97;;;;;;;28.83;28.97;96954.81;5116531;28;20048;-64
2023/09/07 08:36:59;;;;;;;8.02;3.50;;;;;;;29.04;28.04;96953.53;5116699;28;20050;-68
2023/09/07 08:39:26;;;;;;;12.50;3.13;;;;;;;28.96;27.97;96957.06;5116544;28;20130;-66
2023/09/07 08:41:53;;;;;;;7.35;3.38;;;;;;;28.94;28.80;96948.31;5116480;28;20067;-67
2023/09/07 08:44:22;;;;;;;4.88;3.08;;;;;;;28.81;28.21;96961.38;5116529;28;20039;-65
2023/09/07 08:46:51;;;;;;;5.10;3.08;;;;;;;28.48;28.19;96945.97;5116426;28;20048;-66
2023/09/07 08:49:19;;;;;;;6.88;3.50;;;;;;;28.38;28.24;96954.16;5116415;28;20101;-64
2023/09/07 08:51:48;;;;;;;14.13;3.45;;;;;;;28.41;28.59;96944.94;5116629;27;20180;-64
2023/09/07 08:54:16;;;;;;;6.55;3.22;;;;;;;28.57;28.77;96952.22;5116332;28;20097;-65
2023/09/07 08:56:43;;;;;;;9.50;3.47;;;;;;;28.90;29.57;96938.88;5116274;28;20047;-66
2023/09/07 08:59:10;;;;;;;7.20;3.67;;;;;;;28.78;28.20;96950.94;5116298;28;20138;-66
2023/09/07 09:01:37;;;;;;;4.93;3.28;;;;;;;28.63;28.78;96938.94;5116032;27;20558;-62
2023/09/07 09:04:05;;;;;;;4.70;3.25;;;;;;;28.85;28.39;96930.44;5116307;28;20055;-66
2023/09/07 09:06:32;;;;;;;7.95;3.13;;;;;;;29.10;28.16;96935.88;5115971;28;20142;-66
2023/09/07 09:09:01;;;;;;;7.72;3.38;;;;;;;28.98;27.89;96941.59;5115791;28;20048;-64
2023/09/07 09:11:28;;;;;;;7.22;4.10;;;;;;;28.55;29.29;96941.63;5116041;28;20063;-68
2023/09/07 09:13:55;;;;;;;5.50;3.30;;;;;;;28.48;28.58;96933.34;5115792;28;20416;-66
2023/09/07 09:16:22;;;;;;;13.05;3.30;;;;;;;28.49;29.55;96934.19;5115744;28;20488;-65
2023/09/07 09:18:52;;;;;;;7.88;3.38;;;;;;;28.26;30.04;96938.28;5115750;28;20052;-66
2023/09/07 09:21:19;;;;;;;5.13;3.30;;;;;;;28.17;30.06;96925.81;5114884;28;20101;-64
2023/09/07 09:23:49;;;;;;;6.95;3.22;;;;;;;28.09;29.70;96923.09;5115689;28;20092;-67
2023/09/07 09:26:19;;;;;;;7.85;3.97;;;;;;;28.17;31.12;96914.22;5115628;28;20048;-63
2023/09/07 09:28:46;;;;;;;4.97;3.22;;;;;;;28.49;29.62;96913.53;5115535;28;20048;-64
2023/09/07 09:31:15;;;;;;;10.07;4.22;;;;;;;28.72;30.32;96898.63;5115605;28;20115;-64
2023/09/07 09:33:43;;;;;;;7.50;3.55;;;;;;;28.80;29.41;96901.31;5115498;28;20056;-67
2023/09/07 09:36:11;;;;;;;5.18;3.80;;;;;;;28.56;30.02;96910.19;5115570;28;20134;-66
2023/09/07 09:38:39;;;;;;;5.95;3.35;;;;;;;28.16;30.58;96909.81;5115171;28;20576;-65
2023/09/07 09:41:08;;;;;;;6.43;3.40;;;;;;;28.04;30.82;96901.22;5115388;27;20058;-63
2023/09/07 09:43:37;;;;;;;10.10;3.83;;;;;;;28.06;31.35;96899.22;5115194;28;20625;-65
2023/09/07 09:46:05;;;;;;;6.03;3.50;;;;;;;28.07;31.46;96891.00;5115188;28;20071;-65
2023/09/07 09:48:34;;;;;;;9.43;4.13;;;;;;;28.03;30.79;96884.25;5115273;28;20046;-62
2023/09/07 09:51:01;;;;;;;5.43;3.72;;;;;;;28.30;30.99;96881.53;5115238;28;20071;-62
2023/09/07 09:53:29;;;;;;;8.50;3.63;;;;;;;28.33;30.42;96882.06;5115144;28;20126;-65
2023/09/07 09:55:57;;;;;;;6.72;3.25;;;;;;;28.46;30.74;96873.50;5115314;27;20051;-67
2023/09/07 09:58:24;;;;;;;3.92;3.35;;;;;;;28.59;30.67;96877.59;5114890;28;20043;-64
2023/09/07 10:00:57;;;;;;;6.28;3.97;;;;;;;28.29;31.05;96885.19;5114980;28;20047;-64
2023/09/07 10:03:30;;;;;;;8.38;3.90;;;;;;;27.99;30.79;96881.03;5114980;28;20044;-62
2023/09/07 10:05:57;;;;;;;9.07;4.03;;;;;;;27.98;31.32;96882.06;5114892;28;20059;-68
2023/09/07 10:08:24;;;;;;;10.40;3.45;;;;;;;28.22;30.24;96877.78;5114672;28;20079;-63
2023/09/07 10:10:56;;;;;;;5.25;3.45;;;;;;;28.55;30.10;96870.84;5114761;28;20055;-66
2023/09/07 10:13:32;;;;;;;10.52;4.05;;;;;;;28.85;29.79;96869.38;5114727;28;20045;-63
2023/09/07 10:16:07;;;;;;;9.32;3.75;;;;;;;28.92;29.95;96866.03;5114819;28;20131;-63
2023/09/07 10:18:36;;;;;;;9.10;3.53;;;;;;;29.01;28.97;96875.81;5114523;28;20043;-65
2023/09/07 10:21:03;;;;;;;9.07;4.05;;;;;;;29.17;29.30;96866.91;5114693;28;20083;-64
2023/09/07 10:23:38;;;;;;;5.90;3.22;;;;;;;29.26;27.95;96860.50;5114618;28;20132;-63
2023/09/07 10:26:11;;;;;;;7.05;3.42;;;;;;;29.33;28.70;96866.06;5114454;28;20047;-64
2023/09/07 10:28:38;;;;;;;11.52;3.80;;;;;;;29.32;28.57;96868.91;5114793;28;20493;-60
2023/09/07 10:31:08;;;;;;;6.38;3.35;;;;;;;29.24;28.70;96865.22;5114371;28;20040;-64
2023/09/07 10:33:37;;;;;;;6.90;3.30;;;;;;;29.19;28.56;96867.56;5114372;28;20515;-64
2023/09/07 10:36:05;;;;;;;5.05;3.40;;;;;;;29.06;29.23;96878.84;5114170;28;20044;-64
2023/09/07 10:38:33;;;;;;;11.48;3.92;;;;;;;28.95;28.20;96868.44;5114231;28;20054;-63
2023/09/07 10:41:01;;;;;;;9.13;3.25;;;;;;;28.49;28.49;96862.44;5114167;28;20047;-64
2023/09/07 10:43:29;;;;;;;7.82;3.60;;;;;;;28.18;29.38;96868.38;5114179;28;20059;-62
2023/09/07 10:45:57;;;;;;;8.55;3.47;;;;;;;28.43;30.10;96864.91;5114131;28;20100;-61
2023/09/07 10:48:26;;;;;;;4.90;3.38;;;;;;;28.15;29.79;96865.16;5114039;28;20130;-63
2023/09/07 10:50:54;;;;;;;6.97;3.30;;;;;;;27.82;29.23;96868.53;5114074;28;20126;-62
2023/09/07 10:53:29;;;;;;;11.75;4.03;;;;;;;27.61;30.76;96861.66;5114192;28;20039;-62
2023/09/07 10:55:58;;;;;;;6.20;3.85;;;;;;;27.45;30.95;96865.09;5113982;28;20039;-64
2023/09/07 10:58:26;;;;;;;6.00;3.55;;;;;;;27.37;31.29;96861.38;5113911;28;20040;-63
2023/09/07 11:00:54;;;;;;;6.30;3.65;;;;;;;27.27;31.01;96865.13;5113666;28;20052;-64
2023/09/07 11:03:21;;;;;;;9.35;3.47;;;;;;;27.24;31.01;96869.81;5113753;28;20458;-64
2023/09/07 11:05:51;;;;;;;8.32;3.95;;;;;;;27.21;31.17;96856.69;5114024;28;20058;-61
2023/09/07 11:08:19;;;;;;;4.55;3.28;;;;;;;27.33;31.53;96859.97;5113693;28;20053;-63
2023/09/07 11:10:46;;;;;;;5.30;3.85;;;;;;;27.32;31.59;96855.59;5113875;28;20489;-62
2023/09/07 11:13:14;;;;;;;4.63;3.75;;;;;;;27.32;31.42;96849.38;5113896;28;20119;-64
2023/09/07 11:15:43;;;;;;;6.65;3.58;;;;;;;27.33;31.71;96854.59;5113664;28;20048;-63
2023/09/07 11:18:11;;;;;;;4.82;3.58;;;;;;;27.30;32.02;96849.53;5113806;28;20108;-65
2023/09/07 11:20:40;;;;;;;9.52;3.88;;;;;;;27.20;31.69;96849.66;5113590;28;20143;-62
2023/09/07 11:23:08;;;;;;;5.80;3.67;;;;;;;26.99;33.24;96853.50;5113461;28;20089;-62
2023/09/07 11:25:37;;;;;;;4.40;3.78;;;;;;;26.94;32.84;96855.78;5113882;28;20079;-61
2023/09/07 11:28:05;;;;;;;9.55;4.13;;;;;;;26.93;33.86;96851.41;5113576;28;20047;-62
2023/09/07 11:30:33;;;;;;;7.00;3.90;;;;;;;26.94;33.46;96849.59;5113633;28;20052;-63
2023/09/07 11:33:04;;;;;;;5.30;3.78;;;;;;;27.00;32.72;96851.69;5113499;28;20073;-62
2023/09/07 11:35:31;;;;;;;4.88;4.10;;;;;;;27.05;32.75;96844.00;5113434;28;20130;-63